createdAt,value
2018-04-11T00:00:29.668Z,41.50
2018-04-11T00:01:34.438Z,41.50
2018-04-11T00:02:39.182Z,41.60
2018-04-11T00:03:43.959Z,41.60
2018-04-11T00:04:48.617Z,41.50
2018-04-11T00:05:53.388Z,41.70
2018-04-11T00:06:58.335Z,41.60
2018-04-11T00:08:03.236Z,41.50
2018-04-11T00:09:08.111Z,41.50
2018-04-11T00:10:13.010Z,41.50
2018-04-11T00:11:18.086Z,41.50
2018-04-11T00:12:22.838Z,41.50
2018-04-11T00:13:27.833Z,41.60
2018-04-11T00:14:32.625Z,41.50
2018-04-11T00:15:37.574Z,41.50
2018-04-11T00:16:42.575Z,41.50
2018-04-11T00:17:47.625Z,41.50
2018-04-11T00:18:52.504Z,41.50
2018-04-11T00:19:57.436Z,41.50
2018-04-11T00:21:02.199Z,41.50
2018-04-11T00:22:07.002Z,41.50
2018-04-11T00:23:11.990Z,41.50
2018-04-11T00:24:16.838Z,41.50
2018-04-11T00:25:21.662Z,41.50
2018-04-11T00:26:26.403Z,41.50
2018-04-11T00:27:31.278Z,41.50
2018-04-11T00:28:36.334Z,41.50
2018-04-11T00:29:41.152Z,41.50
2018-04-11T00:30:46.158Z,41.40
2018-04-11T00:31:51.028Z,41.40
2018-04-11T00:32:55.896Z,41.50
2018-04-11T00:34:00.672Z,41.40
2018-04-11T00:35:05.521Z,41.40
2018-04-11T00:36:10.490Z,41.40
2018-04-11T00:37:15.320Z,41.50
2018-04-11T00:38:20.262Z,41.40
2018-04-11T00:39:25.106Z,41.40
2018-04-11T00:40:29.833Z,41.40
2018-04-11T00:41:34.564Z,41.40
2018-04-11T00:42:39.267Z,41.40
2018-04-11T00:43:45.448Z,41.40
2018-04-11T00:44:50.315Z,41.40
2018-04-11T00:45:55.061Z,41.40
2018-04-11T00:47:00.012Z,41.40
2018-04-11T00:48:04.951Z,41.40
2018-04-11T00:49:09.779Z,41.40
2018-04-11T00:50:14.764Z,41.40
2018-04-11T00:51:19.615Z,41.40
2018-04-11T00:52:24.231Z,41.40
2018-04-11T00:53:29.056Z,41.40
2018-04-11T00:54:33.665Z,41.30
2018-04-11T00:55:38.450Z,41.30
2018-04-11T00:56:43.271Z,41.20
2018-04-11T00:57:48.064Z,41.30
2018-04-11T00:58:52.922Z,41.30
2018-04-11T00:59:57.597Z,41.30
2018-04-11T01:01:02.401Z,41.20
2018-04-11T01:02:07.087Z,41.20
2018-04-11T01:03:11.938Z,41.30
2018-04-11T01:04:16.726Z,41.30
2018-04-11T01:05:21.505Z,41.30
2018-04-11T01:06:26.530Z,41.30
2018-04-11T01:07:31.543Z,41.20
2018-04-11T01:08:36.258Z,41.10
2018-04-11T01:09:41.251Z,41.10
2018-04-11T01:10:47.612Z,41.10
2018-04-11T01:11:52.248Z,41.10
2018-04-11T01:12:57.214Z,41.10
2018-04-11T01:14:02.080Z,41.20
2018-04-11T01:15:06.823Z,41.10
2018-04-11T01:16:11.616Z,41.10
2018-04-11T01:17:16.462Z,41.20
2018-04-11T01:18:21.356Z,41.80
2018-04-11T01:19:26.176Z,41.20
2018-04-11T01:20:30.942Z,41.10
2018-04-11T01:21:35.805Z,41.10
2018-04-11T01:22:40.579Z,41.10
2018-04-11T01:23:45.296Z,41.20
2018-04-11T01:24:49.996Z,41.10
2018-04-11T01:25:54.932Z,41.10
2018-04-11T01:26:59.554Z,41.00
2018-04-11T01:28:04.327Z,41.00
2018-04-11T01:29:09.017Z,41.00
2018-04-11T01:30:13.802Z,41.00
2018-04-11T01:31:18.540Z,41.00
2018-04-11T01:32:23.302Z,41.00
2018-04-11T01:33:28.126Z,41.00
2018-04-11T01:34:32.832Z,41.10
2018-04-11T01:35:37.578Z,41.00
2018-04-11T01:36:42.292Z,41.00
2018-04-11T01:37:47.063Z,41.00
2018-04-11T01:38:52.003Z,41.00
2018-04-11T01:39:56.987Z,41.00
2018-04-11T01:41:01.626Z,41.00
2018-04-11T01:42:06.450Z,41.00
2018-04-11T01:43:11.211Z,41.00
2018-04-11T01:44:15.872Z,41.00
2018-04-11T01:45:20.778Z,41.00
2018-04-11T01:46:25.551Z,41.00
2018-04-11T01:47:30.238Z,41.00
2018-04-11T01:48:35.146Z,41.00
2018-04-11T01:49:39.921Z,40.90
2018-04-11T01:50:44.638Z,41.00
2018-04-11T01:51:49.225Z,40.90
2018-04-11T01:52:54.004Z,40.90
2018-04-11T01:53:58.831Z,40.90
2018-04-11T01:55:03.804Z,40.90
2018-04-11T01:56:08.616Z,40.90
2018-04-11T01:57:13.498Z,40.90
2018-04-11T01:58:18.322Z,40.90
2018-04-11T01:59:23.122Z,40.90
2018-04-11T02:00:28.074Z,40.90
2018-04-11T02:01:32.892Z,40.90
2018-04-11T02:02:37.683Z,40.80
2018-04-11T02:03:42.669Z,40.80
2018-04-11T02:04:47.436Z,40.80
2018-04-11T02:05:52.244Z,40.80
2018-04-11T02:06:57.131Z,40.80
2018-04-11T02:08:01.915Z,40.80
2018-04-11T02:09:06.589Z,40.80
2018-04-11T02:10:11.315Z,40.80
2018-04-11T02:11:16.240Z,40.80
2018-04-11T02:12:21.103Z,40.80
2018-04-11T02:13:25.866Z,40.80
2018-04-11T02:14:30.525Z,40.80
2018-04-11T02:15:35.230Z,40.70
2018-04-11T02:16:40.065Z,40.70
2018-04-11T02:17:44.913Z,40.70
2018-04-11T02:18:49.613Z,40.70
2018-04-11T02:19:54.414Z,40.70
2018-04-11T02:20:59.397Z,40.70
2018-04-11T02:22:04.211Z,40.70
2018-04-11T02:23:09.061Z,40.70
2018-04-11T02:24:13.827Z,40.70
2018-04-11T02:25:18.501Z,40.60
2018-04-11T02:26:23.423Z,40.60
2018-04-11T02:27:28.095Z,40.60
2018-04-11T02:28:32.916Z,40.60
2018-04-11T02:29:37.908Z,40.70
2018-04-11T02:30:42.873Z,40.70
2018-04-11T02:31:47.633Z,40.60
2018-04-11T02:32:52.399Z,40.60
2018-04-11T02:33:57.369Z,40.60
2018-04-11T02:35:02.352Z,40.70
2018-04-11T02:36:07.349Z,40.60
2018-04-11T02:37:12.412Z,40.60
2018-04-11T02:38:17.246Z,40.80
2018-04-11T02:39:22.301Z,40.60
2018-04-11T02:40:27.226Z,40.60
2018-04-11T02:41:32.152Z,40.60
2018-04-11T02:42:36.979Z,40.60
2018-04-11T02:43:41.698Z,40.50
2018-04-11T02:44:46.597Z,40.50
2018-04-11T02:45:51.456Z,40.60
2018-04-11T02:46:56.731Z,40.50
2018-04-11T02:48:01.507Z,40.50
2018-04-11T02:49:06.297Z,40.50
2018-04-11T02:50:10.942Z,40.50
2018-04-11T02:51:15.836Z,40.50
2018-04-11T02:52:20.679Z,40.50
2018-04-11T02:53:25.451Z,40.50
2018-04-11T02:54:30.114Z,41.10
2018-04-11T02:55:34.907Z,40.50
2018-04-11T02:56:39.699Z,40.50
2018-04-11T02:57:44.486Z,40.50
2018-04-11T02:58:49.381Z,40.50
2018-04-11T02:59:54.137Z,40.50
2018-04-11T03:00:58.861Z,40.50
2018-04-11T03:02:03.840Z,40.50
2018-04-11T03:03:08.695Z,40.50
2018-04-11T03:04:13.572Z,40.50
2018-04-11T03:05:18.334Z,40.50
2018-04-11T03:06:23.113Z,40.50
2018-04-11T03:07:28.112Z,40.50
2018-04-11T03:08:32.823Z,40.40
2018-04-11T03:09:37.758Z,40.40
2018-04-11T03:10:42.765Z,40.30
2018-04-11T03:11:47.728Z,40.40
2018-04-11T03:12:52.521Z,40.40
2018-04-11T03:13:57.502Z,40.40
2018-04-11T03:15:02.397Z,40.40
2018-04-11T03:16:07.339Z,40.40
2018-04-11T03:17:12.229Z,41.10
2018-04-11T03:18:17.009Z,40.40
2018-04-11T03:19:22.077Z,40.40
2018-04-11T03:20:26.944Z,40.40
2018-04-11T03:21:31.746Z,40.40
2018-04-11T03:22:36.568Z,40.40
2018-04-11T03:23:41.520Z,40.40
2018-04-11T03:24:46.220Z,40.30
2018-04-11T03:25:51.027Z,40.40
2018-04-11T03:26:55.975Z,40.30
2018-04-11T03:28:00.723Z,40.30
2018-04-11T03:29:06.252Z,40.30
2018-04-11T03:30:11.123Z,40.40
2018-04-11T03:31:16.162Z,40.40
2018-04-11T03:32:21.138Z,40.30
2018-04-11T03:33:26.048Z,40.40
2018-04-11T03:34:30.865Z,40.30
2018-04-11T03:35:35.614Z,40.30
2018-04-11T03:36:40.602Z,40.30
2018-04-11T03:37:45.490Z,40.40
2018-04-11T03:38:50.132Z,40.30
2018-04-11T03:39:55.077Z,40.40
2018-04-11T03:40:59.743Z,40.30
2018-04-11T03:42:04.755Z,40.30
2018-04-11T03:43:09.700Z,40.30
2018-04-11T03:44:14.605Z,40.40
2018-04-11T03:45:19.570Z,40.30
2018-04-11T03:46:24.539Z,41.00
2018-04-11T03:47:29.339Z,40.40
2018-04-11T03:48:34.227Z,40.40
2018-04-11T03:49:39.207Z,40.30
2018-04-11T03:50:43.983Z,40.30
2018-04-11T03:51:49.433Z,40.40
2018-04-11T03:52:54.443Z,40.30
2018-04-11T03:53:59.367Z,40.30
2018-04-11T03:55:04.377Z,40.40
2018-04-11T03:56:09.142Z,40.30
2018-04-11T03:57:14.073Z,40.40
2018-04-11T03:58:18.946Z,40.30
2018-04-11T03:59:23.847Z,40.40
2018-04-11T04:00:28.886Z,40.40
2018-04-11T04:01:33.825Z,40.40
2018-04-11T04:02:38.824Z,40.30
2018-04-11T04:03:43.615Z,40.30
2018-04-11T04:04:48.533Z,40.30
2018-04-11T04:05:53.150Z,40.40
2018-04-11T04:06:57.886Z,40.30
2018-04-11T04:08:02.739Z,40.30
2018-04-11T04:09:08.431Z,40.30
2018-04-11T04:10:13.367Z,40.30
2018-04-11T04:11:18.244Z,40.30
2018-04-11T04:12:23.126Z,40.20
2018-04-11T04:13:27.713Z,40.30
2018-04-11T04:14:32.696Z,40.20
2018-04-11T04:15:37.448Z,40.20
2018-04-11T04:16:42.255Z,40.20
2018-04-11T04:17:47.040Z,40.40
2018-04-11T04:18:51.812Z,40.30
2018-04-11T04:19:56.483Z,40.40
2018-04-11T04:21:01.392Z,40.30
2018-04-11T04:22:06.369Z,40.30
2018-04-11T04:23:11.339Z,40.30
2018-04-11T04:24:16.306Z,40.30
2018-04-11T04:25:21.254Z,40.30
2018-04-11T04:26:26.083Z,40.30
2018-04-11T04:27:35.914Z,40.30
2018-04-11T04:28:41.401Z,40.30
2018-04-11T04:29:46.211Z,40.30
2018-04-11T04:30:51.204Z,40.30
2018-04-11T04:31:56.035Z,40.30
2018-04-11T04:33:01.126Z,40.30
2018-04-11T04:34:05.842Z,40.30
2018-04-11T04:35:10.725Z,40.30
2018-04-11T04:36:15.481Z,40.30
2018-04-11T04:37:20.320Z,40.30
2018-04-11T04:38:25.346Z,40.40
2018-04-11T04:39:30.013Z,40.40
2018-04-11T04:40:34.914Z,40.40
2018-04-11T04:41:39.824Z,40.40
2018-04-11T04:42:45.538Z,40.40
2018-04-11T04:43:50.172Z,40.40
2018-04-11T04:44:54.787Z,40.40
2018-04-11T04:45:59.549Z,40.40
2018-04-11T04:47:04.384Z,40.40
2018-04-11T04:48:09.755Z,40.40
2018-04-11T04:49:14.614Z,40.40
2018-04-11T04:50:19.555Z,40.50
2018-04-11T04:51:24.343Z,40.50
2018-04-11T04:52:29.363Z,40.50
2018-04-11T04:53:34.312Z,40.50
2018-04-11T04:54:39.258Z,40.50
2018-04-11T04:55:44.177Z,40.50
2018-04-11T04:56:49.149Z,40.40
2018-04-11T04:57:54.015Z,40.50
2018-04-11T04:58:58.699Z,41.30
2018-04-11T05:00:03.516Z,40.70
2018-04-11T05:01:08.393Z,40.70
2018-04-11T05:02:13.541Z,40.70
2018-04-11T05:03:18.373Z,40.80
2018-04-11T05:04:23.171Z,41.00
2018-04-11T05:05:28.115Z,41.10
2018-04-11T05:06:32.772Z,41.30
2018-04-11T05:07:37.663Z,41.40
2018-04-11T05:08:42.393Z,41.60
2018-04-11T05:09:47.189Z,41.70
2018-04-11T05:10:51.875Z,41.80
2018-04-11T05:11:56.630Z,41.90
2018-04-11T05:13:01.483Z,41.90
2018-04-11T05:14:06.510Z,41.90
2018-04-11T05:15:11.483Z,41.80
2018-04-11T05:16:16.254Z,41.90
2018-04-11T05:17:21.033Z,41.80
2018-04-11T05:18:25.904Z,41.90
2018-04-11T05:19:30.863Z,41.90
2018-04-11T05:20:35.672Z,41.90
2018-04-11T05:21:40.416Z,41.90
2018-04-11T05:22:45.096Z,41.80
2018-04-11T05:23:49.956Z,41.80
2018-04-11T05:24:54.598Z,41.80
2018-04-11T05:25:59.418Z,41.80
2018-04-11T05:27:04.192Z,41.80
2018-04-11T05:28:08.997Z,41.80
2018-04-11T05:29:13.730Z,41.80
2018-04-11T05:30:18.562Z,41.80
2018-04-11T05:31:23.316Z,41.80
2018-04-11T05:32:28.114Z,41.90
2018-04-11T05:33:32.879Z,41.80
2018-04-11T05:34:37.678Z,41.80
2018-04-11T05:35:42.638Z,41.80
2018-04-11T05:36:47.471Z,41.80
2018-04-11T05:37:52.283Z,41.80
2018-04-11T05:38:57.271Z,41.80
2018-04-11T05:40:02.118Z,41.70
2018-04-11T05:41:06.844Z,41.70
2018-04-11T05:42:11.591Z,41.70
2018-04-11T05:43:16.364Z,41.60
2018-04-11T05:44:21.281Z,41.70
2018-04-11T05:45:26.088Z,41.70
2018-04-11T05:46:30.771Z,41.60
2018-04-11T05:47:35.384Z,41.70
2018-04-11T05:48:40.267Z,41.60
2018-04-11T05:49:45.099Z,41.60
2018-04-11T05:50:49.906Z,41.70
2018-04-11T05:51:54.866Z,41.50
2018-04-11T05:52:59.800Z,41.50
2018-04-11T05:54:04.632Z,41.50
2018-04-11T05:55:09.469Z,41.50
2018-04-11T05:56:14.462Z,41.40
2018-04-11T05:57:19.374Z,41.40
2018-04-11T05:58:24.186Z,41.40
2018-04-11T05:59:28.981Z,41.40
2018-04-11T06:00:33.831Z,41.50
2018-04-11T06:01:38.823Z,41.40
2018-04-11T06:02:43.494Z,41.40
2018-04-11T06:03:48.367Z,41.40
2018-04-11T06:04:53.049Z,41.40
2018-04-11T06:05:58.099Z,41.40
2018-04-11T06:07:02.896Z,41.40
2018-04-11T06:08:07.589Z,41.40
2018-04-11T06:09:12.650Z,41.40
2018-04-11T06:10:17.358Z,41.40
2018-04-11T06:11:22.178Z,41.30
2018-04-11T06:12:26.983Z,41.40
2018-04-11T06:13:32.733Z,41.30
2018-04-11T06:14:37.648Z,41.30
2018-04-11T06:15:42.392Z,41.30
2018-04-11T06:16:47.061Z,41.30
2018-04-11T06:17:51.807Z,41.30
2018-04-11T06:18:56.496Z,41.30
2018-04-11T06:20:01.323Z,41.30
2018-04-11T06:21:05.990Z,41.20
2018-04-11T06:22:10.692Z,41.30
2018-04-11T06:23:15.563Z,41.20
2018-04-11T06:24:20.406Z,41.20
2018-04-11T06:25:25.192Z,41.20
2018-04-11T06:26:29.808Z,41.20
2018-04-11T06:27:34.906Z,41.20
2018-04-11T06:28:39.904Z,41.20
2018-04-11T06:29:44.811Z,41.30
2018-04-11T06:30:49.675Z,41.20
2018-04-11T06:31:54.434Z,41.30
2018-04-11T06:32:59.029Z,41.30
2018-04-11T06:34:03.984Z,41.30
2018-04-11T06:35:08.978Z,41.20
2018-04-11T06:36:13.921Z,41.30
2018-04-11T06:37:18.677Z,41.20
2018-04-11T06:38:23.598Z,41.30
2018-04-11T06:39:28.435Z,41.40
2018-04-11T06:40:33.139Z,41.20
2018-04-11T06:41:38.129Z,41.20
2018-04-11T06:42:43.083Z,41.30
2018-04-11T06:43:47.892Z,41.30
2018-04-11T06:44:52.820Z,41.20
2018-04-11T06:45:57.726Z,41.30
2018-04-11T06:47:02.741Z,41.40
2018-04-11T06:48:07.571Z,41.40
2018-04-11T06:49:12.484Z,41.50
2018-04-11T06:50:17.392Z,41.60
2018-04-11T06:51:22.213Z,41.60
2018-04-11T06:52:26.914Z,41.60
2018-04-11T06:53:33.059Z,41.60
2018-04-11T06:54:38.135Z,41.50
2018-04-11T06:55:43.227Z,41.60
2018-04-11T06:56:48.063Z,41.60
2018-04-11T06:57:52.883Z,41.60
2018-04-11T06:58:58.317Z,41.50
2018-04-11T07:00:03.469Z,41.60
2018-04-11T07:01:08.564Z,41.60
2018-04-11T07:02:13.490Z,41.60
2018-04-11T07:03:18.106Z,41.60
2018-04-11T07:04:22.915Z,41.70
2018-04-11T07:05:27.746Z,41.70
2018-04-11T07:06:32.753Z,41.70
2018-04-11T07:07:37.621Z,41.60
2018-04-11T07:08:42.595Z,41.70
2018-04-11T07:09:47.580Z,41.70
2018-04-11T07:10:52.444Z,41.70
2018-04-11T07:11:57.103Z,41.60
2018-04-11T07:13:02.116Z,41.80
2018-04-11T07:14:06.991Z,41.80
2018-04-11T07:15:11.721Z,41.80
2018-04-11T07:16:16.694Z,41.90
2018-04-11T07:17:21.697Z,41.80
2018-04-11T07:18:26.651Z,41.90
2018-04-11T07:19:31.643Z,41.90
2018-04-11T07:20:36.550Z,42.00
2018-04-11T07:21:41.537Z,42.00
2018-04-11T07:22:46.427Z,42.00
2018-04-11T07:23:51.335Z,42.00
2018-04-11T07:24:56.234Z,42.10
2018-04-11T07:26:01.039Z,42.10
2018-04-11T07:27:06.913Z,42.10
2018-04-11T07:28:11.672Z,42.10
2018-04-11T07:29:16.581Z,42.10
2018-04-11T07:30:21.551Z,42.40
2018-04-11T07:31:26.431Z,42.10
2018-04-11T07:32:31.306Z,42.10
2018-04-11T07:33:36.029Z,42.10
2018-04-11T07:34:40.875Z,42.10
2018-04-11T07:35:45.608Z,42.10
2018-04-11T07:36:50.365Z,42.70
2018-04-11T07:37:55.249Z,42.20
2018-04-11T07:39:00.084Z,42.10
2018-04-11T07:40:04.831Z,42.20
2018-04-11T07:41:09.763Z,42.20
2018-04-11T07:42:14.749Z,42.20
2018-04-11T07:43:19.401Z,42.20
2018-04-11T07:44:24.227Z,42.20
2018-04-11T07:45:29.060Z,42.20
2018-04-11T07:46:33.858Z,42.20
2018-04-11T07:47:38.557Z,42.30
2018-04-11T07:48:43.361Z,42.30
2018-04-11T07:49:48.169Z,42.30
2018-04-11T07:50:53.136Z,42.30
2018-04-11T07:51:57.937Z,42.30
2018-04-11T07:53:03.371Z,42.40
2018-04-11T07:54:08.109Z,42.40
2018-04-11T07:55:13.009Z,42.40
2018-04-11T07:56:17.878Z,43.10
2018-04-11T07:57:22.648Z,42.40
2018-04-11T07:58:27.424Z,42.40
2018-04-11T07:59:32.299Z,42.40
2018-04-11T08:00:37.324Z,42.50
2018-04-11T08:01:42.054Z,42.50
2018-04-11T08:02:47.036Z,42.50
2018-04-11T08:03:51.822Z,42.50
2018-04-11T08:04:56.509Z,42.60
2018-04-11T08:06:01.946Z,42.50
2018-04-11T08:07:06.801Z,42.60
2018-04-11T08:08:11.743Z,42.60
2018-04-11T08:09:16.808Z,42.60
2018-04-11T08:10:21.718Z,42.60
2018-04-11T08:11:26.461Z,42.60
2018-04-11T08:12:32.421Z,42.60
2018-04-11T08:13:37.346Z,42.70
2018-04-11T08:14:42.256Z,42.70
2018-04-11T08:15:47.141Z,42.60
2018-04-11T08:16:51.875Z,42.70
2018-04-11T08:17:56.668Z,42.60
2018-04-11T08:19:01.647Z,42.60
2018-04-11T08:20:06.552Z,42.50
2018-04-11T08:21:11.547Z,42.50
2018-04-11T08:22:16.206Z,42.50
2018-04-11T08:23:21.062Z,42.40
2018-04-11T08:24:25.837Z,42.40
2018-04-11T08:25:30.626Z,42.50
2018-04-11T08:26:35.559Z,42.50
2018-04-11T08:27:40.537Z,42.50
2018-04-11T08:28:45.543Z,42.50
2018-04-11T08:29:50.417Z,42.50
2018-04-11T08:30:55.265Z,42.50
2018-04-11T08:32:00.254Z,42.50
2018-04-11T08:33:05.218Z,42.60
2018-04-11T08:34:10.077Z,42.60
2018-04-11T08:35:15.021Z,42.60
2018-04-11T08:36:19.704Z,42.60
2018-04-11T08:37:24.375Z,42.70
2018-04-11T08:38:29.231Z,42.70
2018-04-11T08:39:34.414Z,42.60
2018-04-11T08:40:39.292Z,42.80
2018-04-11T08:41:44.100Z,42.70
2018-04-11T08:42:48.779Z,42.70
2018-04-11T08:43:53.588Z,42.80
2018-04-11T08:44:58.378Z,42.70
2018-04-11T08:46:03.276Z,42.80
2018-04-11T08:47:08.088Z,42.80
2018-04-11T08:48:12.816Z,42.90
2018-04-11T08:49:17.695Z,42.90
2018-04-11T08:50:22.385Z,42.90
2018-04-11T08:51:27.198Z,42.90
2018-04-11T08:52:32.207Z,43.00
2018-04-11T08:53:36.980Z,42.90
2018-04-11T08:54:41.828Z,43.00
2018-04-11T08:55:46.522Z,43.10
2018-04-11T08:56:51.271Z,43.00
2018-04-11T08:57:56.093Z,43.10
2018-04-11T08:59:00.985Z,43.00
2018-04-11T09:00:05.819Z,43.10
2018-04-11T09:01:10.655Z,43.20
2018-04-11T09:02:15.603Z,43.20
2018-04-11T09:03:20.472Z,43.20
2018-04-11T09:04:25.188Z,43.20
2018-04-11T09:05:29.921Z,43.20
2018-04-11T09:06:34.904Z,43.20
2018-04-11T09:07:39.900Z,43.30
2018-04-11T09:08:44.623Z,43.30
2018-04-11T09:09:49.547Z,43.30
2018-04-11T09:10:54.272Z,43.30
2018-04-11T09:11:59.329Z,43.40
2018-04-11T09:13:04.028Z,43.30
2018-04-11T09:14:09.204Z,43.40
2018-04-11T09:15:13.950Z,43.30
2018-04-11T09:16:18.782Z,43.40
2018-04-11T09:17:23.560Z,43.30
2018-04-11T09:18:28.414Z,43.40
2018-04-11T09:19:33.302Z,43.40
2018-04-11T09:20:37.954Z,43.40
2018-04-11T09:21:42.875Z,43.50
2018-04-11T09:22:47.555Z,43.50
2018-04-11T09:23:52.442Z,43.40
2018-04-11T09:24:57.245Z,43.60
2018-04-11T09:26:02.221Z,43.50
2018-04-11T09:27:07.045Z,43.50
2018-04-11T09:28:11.664Z,43.50
2018-04-11T09:29:16.304Z,43.60
2018-04-11T09:30:21.260Z,43.50
2018-04-11T09:31:26.016Z,43.60
2018-04-11T09:32:31.163Z,43.70
2018-04-11T09:33:36.105Z,43.70
2018-04-11T09:34:40.899Z,43.80
2018-04-11T09:35:45.764Z,43.80
2018-04-11T09:36:50.498Z,43.80
2018-04-11T09:37:55.426Z,43.80
2018-04-11T09:39:00.353Z,43.80
2018-04-11T09:40:05.172Z,43.90
2018-04-11T09:41:09.979Z,43.90
2018-04-11T09:42:14.738Z,43.90
2018-04-11T09:43:19.540Z,44.00
2018-04-11T09:44:24.559Z,44.00
2018-04-11T09:45:29.434Z,44.00
2018-04-11T09:46:34.164Z,44.00
2018-04-11T09:47:39.009Z,44.00
2018-04-11T09:48:43.800Z,44.00
2018-04-11T09:49:48.738Z,44.00
2018-04-11T09:50:53.454Z,44.10
2018-04-11T09:51:58.245Z,44.00
2018-04-11T09:53:03.214Z,44.10
2018-04-11T09:54:08.210Z,44.10
2018-04-11T09:55:13.221Z,44.20
2018-04-11T09:56:18.246Z,44.20
2018-04-11T09:57:23.118Z,44.20
2018-04-11T09:58:28.133Z,44.20
2018-04-11T09:59:32.944Z,44.30
2018-04-11T10:00:37.782Z,44.30
2018-04-11T10:01:42.736Z,44.30
2018-04-11T10:02:47.655Z,44.30
2018-04-11T10:03:52.647Z,44.30
2018-04-11T10:04:57.493Z,44.20
2018-04-11T10:06:02.504Z,44.30
2018-04-11T10:07:07.477Z,44.30
2018-04-11T10:08:12.293Z,44.30
2018-04-11T10:09:17.184Z,44.30
2018-04-11T10:10:21.977Z,44.30
2018-04-11T10:11:26.753Z,44.30
2018-04-11T10:12:31.478Z,44.30
2018-04-11T10:13:37.162Z,44.30
2018-04-11T10:14:42.220Z,44.30
2018-04-11T10:15:47.261Z,44.40
2018-04-11T10:16:52.345Z,44.40
2018-04-11T10:17:57.394Z,44.30
2018-04-11T10:19:02.411Z,44.30
2018-04-11T10:20:07.224Z,44.30
2018-04-11T10:21:12.136Z,44.30
2018-04-11T10:22:16.895Z,44.30
2018-04-11T10:23:21.983Z,44.40
2018-04-11T10:24:26.692Z,44.40
2018-04-11T10:25:31.549Z,44.40
2018-04-11T10:26:36.395Z,44.40
2018-04-11T10:27:41.374Z,44.40
2018-04-11T10:28:46.253Z,44.40
2018-04-11T10:29:51.231Z,44.40
2018-04-11T10:30:56.070Z,44.50
2018-04-11T10:32:01.467Z,44.50
2018-04-11T10:33:06.466Z,44.40
2018-04-11T10:34:11.283Z,44.50
2018-04-11T10:35:16.273Z,44.50
2018-04-11T10:36:21.092Z,44.60
2018-04-11T10:37:25.973Z,44.50
2018-04-11T10:38:30.725Z,44.50
2018-04-11T10:39:35.678Z,44.60
2018-04-11T10:40:40.519Z,44.50
2018-04-11T10:41:45.500Z,44.40
2018-04-11T10:42:50.291Z,44.40
2018-04-11T10:43:55.180Z,44.20
2018-04-11T10:45:00.106Z,44.10
2018-04-11T10:46:05.038Z,44.00
2018-04-11T10:47:09.843Z,44.00
2018-04-11T10:48:14.522Z,44.00
2018-04-11T10:49:19.265Z,44.10
2018-04-11T10:50:24.228Z,44.80
2018-04-11T10:51:29.052Z,44.10
2018-04-11T10:52:33.898Z,44.10
2018-04-11T10:53:38.894Z,44.20
2018-04-11T10:54:43.541Z,44.00
2018-04-11T10:55:48.345Z,43.90
2018-04-11T10:56:53.134Z,43.80
2018-04-11T10:57:58.106Z,43.90
2018-04-11T10:59:02.938Z,44.00
2018-04-11T11:00:07.880Z,44.10
2018-04-11T11:01:12.666Z,44.10
2018-04-11T11:02:17.283Z,44.20
2018-04-11T11:03:21.997Z,44.20
2018-04-11T11:04:26.817Z,44.30
2018-04-11T11:05:31.566Z,44.30
2018-04-11T11:06:36.448Z,44.30
2018-04-11T11:07:41.277Z,44.40
2018-04-11T11:08:46.047Z,44.40
2018-04-11T11:09:50.956Z,45.00
2018-04-11T11:10:55.854Z,44.40
2018-04-11T11:12:00.650Z,44.40
2018-04-11T11:13:05.389Z,44.40
2018-04-11T11:14:10.231Z,44.40
2018-04-11T11:15:14.975Z,44.40
2018-04-11T11:16:19.854Z,44.40
2018-04-11T11:17:24.742Z,44.40
2018-04-11T11:18:29.570Z,44.40
2018-04-11T11:19:34.494Z,44.40
2018-04-11T11:20:39.091Z,44.50
2018-04-11T11:21:43.777Z,44.40
2018-04-11T11:22:48.651Z,44.40
2018-04-11T11:23:53.209Z,44.40
2018-04-11T11:24:57.884Z,44.50
2018-04-11T11:26:02.671Z,44.40
2018-04-11T11:27:07.590Z,44.50
2018-04-11T11:28:12.265Z,44.40
2018-04-11T11:29:16.832Z,44.50
2018-04-11T11:30:21.598Z,44.60
2018-04-11T11:31:26.352Z,44.50
2018-04-11T11:32:31.129Z,44.40
2018-04-11T11:33:35.787Z,44.50
2018-04-11T11:34:40.538Z,44.60
2018-04-11T11:35:45.361Z,44.50
2018-04-11T11:36:50.277Z,44.60
2018-04-11T11:37:55.308Z,44.60
2018-04-11T11:39:00.190Z,44.60
2018-04-11T11:40:04.821Z,45.20
2018-04-11T11:41:09.760Z,44.60
2018-04-11T11:42:14.569Z,44.70
2018-04-11T11:43:19.419Z,44.60
2018-04-11T11:44:24.114Z,44.60
2018-04-11T11:45:28.778Z,44.60
2018-04-11T11:46:33.417Z,44.60
2018-04-11T11:47:38.739Z,44.70
2018-04-11T11:48:43.479Z,44.60
2018-04-11T11:49:48.415Z,44.60
2018-04-11T11:50:53.445Z,44.60
2018-04-11T11:51:58.246Z,44.60
2018-04-11T11:53:03.221Z,44.60
2018-04-11T11:54:07.900Z,44.70
2018-04-11T11:55:12.559Z,44.80
2018-04-11T11:56:17.259Z,44.70
2018-04-11T11:57:21.987Z,44.80
2018-04-11T11:58:26.593Z,44.70
2018-04-11T11:59:32.183Z,44.70
2018-04-11T12:00:37.380Z,44.70
2018-04-11T12:01:42.966Z,44.70
2018-04-11T12:02:47.701Z,44.70
2018-04-11T12:03:52.670Z,44.70
2018-04-11T12:04:57.467Z,44.70
2018-04-11T12:06:02.079Z,44.80
2018-04-11T12:07:06.874Z,44.70
2018-04-11T12:08:11.808Z,44.80
2018-04-11T12:09:16.638Z,44.70
2018-04-11T12:10:21.476Z,44.70
2018-04-11T12:11:26.384Z,44.70
2018-04-11T12:12:31.149Z,44.80
2018-04-11T12:13:36.121Z,44.70
2018-04-11T12:14:41.036Z,44.70
2018-04-11T12:15:45.810Z,44.70
2018-04-11T12:16:50.588Z,44.70
2018-04-11T12:17:55.465Z,44.70
2018-04-11T12:19:00.134Z,45.40
2018-04-11T12:20:04.983Z,44.70
2018-04-11T12:22:09.620Z,44.70
2018-04-11T12:23:14.385Z,44.70
2018-04-11T12:24:18.999Z,44.70
2018-04-11T12:25:23.681Z,44.70
2018-04-11T12:26:28.461Z,44.70
2018-04-11T12:27:33.307Z,44.70
2018-04-11T12:28:38.055Z,44.70
2018-04-11T12:29:42.698Z,44.70
2018-04-11T12:30:47.693Z,44.70
2018-04-11T12:31:52.431Z,44.70
2018-04-11T12:32:57.241Z,44.60
2018-04-11T12:34:02.296Z,44.70
2018-04-11T12:35:07.169Z,44.60
2018-04-11T12:36:12.090Z,44.60
2018-04-11T12:37:17.072Z,44.70
2018-04-11T12:38:22.019Z,44.60
2018-04-11T12:39:26.821Z,44.60
2018-04-11T12:40:31.557Z,44.50
2018-04-11T12:41:36.321Z,44.70
2018-04-11T12:42:41.167Z,44.60
2018-04-11T12:43:45.988Z,44.70
2018-04-11T12:44:50.924Z,44.70
2018-04-11T12:45:55.815Z,44.60
2018-04-11T12:47:00.782Z,44.60
2018-04-11T12:48:05.790Z,44.80
2018-04-11T12:49:10.484Z,44.60
2018-04-11T12:50:15.518Z,44.60
2018-04-11T12:51:20.605Z,44.60
2018-04-11T12:52:25.353Z,44.60
2018-04-11T12:53:30.193Z,44.60
2018-04-11T12:54:35.041Z,44.70
2018-04-11T12:55:39.974Z,44.60
2018-04-11T12:56:44.757Z,44.60
2018-04-11T12:57:49.408Z,44.60
2018-04-11T12:58:54.155Z,44.70
2018-04-11T12:59:59.696Z,44.60
2018-04-11T13:01:04.495Z,44.60
2018-04-11T13:02:09.246Z,44.70
2018-04-11T13:03:13.961Z,44.60
2018-04-11T13:04:18.875Z,44.70
2018-04-11T13:05:24.804Z,44.60
2018-04-11T13:06:29.531Z,44.60
2018-04-11T13:07:34.120Z,44.60
2018-04-11T13:08:38.856Z,44.70
2018-04-11T13:09:43.566Z,44.80
2018-04-11T13:10:48.347Z,44.70
2018-04-11T13:11:53.105Z,44.70
2018-04-11T13:12:57.755Z,44.70
2018-04-11T13:14:02.689Z,44.60
2018-04-11T13:15:08.402Z,44.60
2018-04-11T13:16:13.155Z,44.80
2018-04-11T13:17:17.934Z,44.60
2018-04-11T13:18:23.394Z,44.70
2018-04-11T13:19:28.073Z,44.60
2018-04-11T13:20:33.304Z,44.80
2018-04-11T13:21:37.938Z,44.70
2018-04-11T13:22:42.708Z,44.60
2018-04-11T13:23:48.245Z,44.60
2018-04-11T13:24:53.109Z,44.70
2018-04-11T13:25:57.781Z,44.60
2018-04-11T13:27:03.202Z,44.80
2018-04-11T13:28:08.113Z,44.60
2018-04-11T13:29:12.922Z,44.70
2018-04-11T13:30:17.703Z,44.70
2018-04-11T13:31:22.773Z,44.70
2018-04-11T13:32:27.455Z,44.80
2018-04-11T13:33:32.340Z,44.70
2018-04-11T13:34:37.327Z,44.60
2018-04-11T13:35:42.101Z,44.70
2018-04-11T13:36:46.892Z,44.60
2018-04-11T13:37:51.824Z,44.80
2018-04-11T13:38:56.514Z,44.70
2018-04-11T13:40:01.336Z,44.60
2018-04-11T13:41:06.030Z,45.00
2018-04-11T13:42:10.891Z,44.60
2018-04-11T13:43:15.779Z,44.60
2018-04-11T13:44:20.530Z,44.70
2018-04-11T13:45:25.447Z,44.70
2018-04-11T13:46:30.425Z,44.70
2018-04-11T13:47:35.307Z,44.60
2018-04-11T13:48:40.233Z,44.60
2018-04-11T13:49:44.980Z,44.60
2018-04-11T13:50:49.692Z,44.60
2018-04-11T13:51:54.738Z,44.60
2018-04-11T13:52:59.584Z,44.60
2018-04-11T13:54:04.225Z,44.60
2018-04-11T13:55:09.034Z,44.50
2018-04-11T13:56:13.864Z,44.50